createdAt,value
2018-09-06T00:01:10.300Z,10.43
2018-09-06T00:03:38.629Z,9.10
2018-09-06T00:06:07.075Z,9.17
2018-09-06T00:08:35.374Z,10.80
2018-09-06T00:11:03.738Z,9.53
2018-09-06T00:13:31.997Z,9.30
2018-09-06T00:16:00.297Z,9.50
2018-09-06T00:18:28.637Z,10.40
2018-09-06T00:20:56.898Z,10.43
2018-09-06T00:23:25.178Z,12.43
2018-09-06T00:25:53.441Z,12.20
2018-09-06T00:28:21.910Z,12.07
2018-09-06T00:30:50.137Z,10.17
2018-09-06T00:33:18.191Z,8.87
2018-09-06T00:35:46.357Z,12.33
2018-09-06T00:38:14.548Z,9.63
2018-09-06T00:40:42.968Z,9.17
2018-09-06T00:43:11.198Z,9.43
2018-09-06T00:45:39.581Z,12.73
2018-09-06T00:48:07.877Z,8.73
2018-09-06T00:50:38.496Z,9.83
2018-09-06T00:53:06.956Z,11.20
2018-09-06T00:55:35.854Z,9.97
2018-09-06T00:58:04.116Z,10.63
2018-09-06T01:00:33.668Z,9.20
2018-09-06T01:03:01.898Z,10.33
2018-09-06T01:05:30.576Z,11.80
2018-09-06T01:07:59.034Z,10.00
2018-09-06T01:10:27.352Z,9.47
2018-09-06T01:12:55.689Z,9.40
2018-09-06T01:15:23.929Z,10.90
2018-09-06T01:17:52.271Z,11.20
2018-09-06T01:20:20.514Z,13.70
2018-09-06T01:22:48.974Z,12.30
2018-09-06T01:25:17.183Z,12.07
2018-09-06T01:27:45.594Z,9.33
2018-09-06T01:30:13.835Z,11.80
2018-09-06T01:32:42.198Z,10.47
2018-09-06T01:35:10.455Z,10.47
2018-09-06T01:37:39.294Z,11.87
2018-09-06T01:40:07.535Z,13.07
2018-09-06T01:42:35.918Z,12.70
2018-09-06T01:45:04.121Z,12.37
2018-09-06T01:47:32.801Z,10.73
2018-09-06T01:50:01.061Z,10.30
2018-09-06T01:52:29.456Z,11.67
2018-09-06T01:54:57.677Z,11.63
2018-09-06T01:57:25.940Z,11.70
2018-09-06T01:59:54.298Z,11.33
2018-09-06T02:02:22.842Z,16.30
2018-09-06T02:04:51.071Z,10.67
2018-09-06T02:07:19.635Z,12.10
2018-09-06T02:09:48.250Z,11.13
2018-09-06T02:12:16.536Z,12.63
2018-09-06T02:14:44.816Z,11.00
2018-09-06T02:17:13.523Z,11.50
2018-09-06T02:19:41.782Z,12.60
2018-09-06T02:22:10.103Z,10.67
2018-09-06T02:24:38.338Z,14.17
2018-09-06T02:27:06.679Z,12.07
2018-09-06T02:29:34.938Z,12.30
2018-09-06T02:32:03.383Z,12.97
2018-09-06T02:34:31.622Z,13.77
2018-09-06T02:36:59.664Z,12.70
2018-09-06T02:39:27.995Z,11.73
2018-09-06T02:41:56.029Z,12.03
2018-09-06T02:44:24.896Z,11.83
2018-09-06T02:46:53.254Z,12.97
2018-09-06T02:49:26.878Z,14.57
2018-09-06T02:51:55.594Z,13.57
2018-09-06T02:54:23.894Z,10.93
2018-09-06T02:56:52.114Z,11.27
2018-09-06T02:59:20.432Z,14.37
2018-09-06T03:01:48.936Z,11.97
2018-09-06T03:04:17.310Z,13.93
2018-09-06T03:06:45.521Z,11.50
2018-09-06T03:09:13.903Z,11.53
2018-09-06T03:11:47.894Z,13.10
2018-09-06T03:14:16.514Z,12.90
2018-09-06T03:16:44.793Z,12.60
2018-09-06T03:19:13.122Z,10.93
2018-09-06T03:21:41.332Z,16.67
2018-09-06T03:24:09.612Z,11.47
2018-09-06T03:26:37.878Z,11.03
2018-09-06T03:29:06.158Z,11.93
2018-09-06T03:31:34.380Z,11.13
2018-09-06T03:34:02.616Z,11.00
2018-09-06T03:36:30.831Z,11.33
2018-09-06T03:38:59.080Z,12.60
2018-09-06T03:41:27.308Z,15.50
2018-09-06T03:43:55.559Z,14.03
2018-09-06T03:46:23.960Z,14.00
2018-09-06T03:48:52.317Z,15.33
2018-09-06T03:51:20.538Z,16.80
2018-09-06T03:53:48.877Z,14.27
2018-09-06T03:56:17.158Z,12.57
2018-09-06T03:58:45.475Z,12.33
2018-09-06T04:01:13.635Z,12.27
2018-09-06T04:03:41.881Z,12.23
2018-09-06T04:06:10.142Z,12.63
2018-09-06T04:08:38.634Z,11.93
2018-09-06T04:11:06.867Z,13.97
2018-09-06T04:13:35.123Z,13.87
2018-09-06T04:16:03.395Z,10.03
2018-09-06T04:18:31.583Z,11.30
2018-09-06T04:20:59.854Z,12.73
2018-09-06T04:23:28.295Z,11.63
2018-09-06T04:25:56.655Z,13.60
2018-09-06T04:28:25.022Z,12.57
2018-09-06T04:30:53.435Z,12.00
2018-09-06T04:33:22.192Z,14.33
2018-09-06T04:35:50.380Z,13.50
2018-09-06T04:38:18.761Z,14.20
2018-09-06T04:40:47.137Z,11.47
2018-09-06T04:43:15.415Z,12.77
2018-09-06T04:45:43.681Z,13.10
2018-09-06T04:48:11.958Z,14.37
2018-09-06T04:50:40.352Z,15.33
2018-09-06T04:53:08.613Z,12.47
2018-09-06T04:55:37.011Z,14.80
2018-09-06T04:58:05.727Z,13.40
2018-09-06T05:00:34.090Z,10.23
2018-09-06T05:03:02.267Z,10.20
2018-09-06T05:05:30.575Z,10.23
2018-09-06T05:07:58.951Z,10.27
2018-09-06T05:10:27.400Z,10.27
2018-09-06T05:12:55.755Z,11.83
2018-09-06T05:15:24.169Z,13.13
2018-09-06T05:17:52.331Z,12.20
2018-09-06T05:20:20.519Z,12.40
2018-09-06T05:22:48.858Z,11.17
2018-09-06T05:25:17.281Z,10.43
2018-09-06T05:27:45.837Z,10.73
2018-09-06T05:30:14.298Z,12.20
2018-09-06T05:32:42.738Z,11.90
2018-09-06T05:35:11.133Z,10.60
2018-09-06T05:37:39.413Z,10.23
2018-09-06T05:40:07.771Z,9.13
2018-09-06T05:42:36.461Z,9.00
2018-09-06T05:45:04.894Z,9.07
2018-09-06T05:47:33.166Z,12.80
2018-09-06T05:50:01.454Z,9.37
2018-09-06T05:52:29.809Z,10.83
2018-09-06T05:54:58.155Z,10.47
2018-09-06T05:57:26.396Z,9.93
2018-09-06T05:59:54.808Z,11.70
2018-09-06T06:02:23.078Z,14.90
2018-09-06T06:04:51.994Z,8.93
2018-09-06T06:07:20.417Z,10.40
2018-09-06T06:09:48.999Z,11.77
2018-09-06T06:12:17.293Z,10.27
2018-09-06T06:14:45.557Z,11.07
2018-09-06T06:17:13.796Z,10.13
2018-09-06T06:19:41.989Z,12.03
2018-09-06T06:22:10.381Z,11.90
2018-09-06T06:24:38.669Z,10.37
2018-09-06T06:27:07.029Z,12.47
2018-09-06T06:29:35.412Z,12.47
2018-09-06T06:32:03.699Z,10.97
2018-09-06T06:34:31.992Z,11.10
2018-09-06T06:37:00.372Z,10.37
2018-09-06T06:39:28.618Z,11.80
2018-09-06T06:41:56.972Z,10.43
2018-09-06T06:44:25.138Z,15.07
2018-09-06T06:46:54.233Z,11.73
2018-09-06T06:49:22.454Z,13.87
2018-09-06T06:51:50.855Z,10.93
2018-09-06T06:54:19.175Z,10.63
2018-09-06T06:56:47.452Z,12.83
2018-09-06T06:59:15.692Z,12.33
2018-09-06T07:01:44.101Z,10.13
2018-09-06T07:04:12.404Z,11.07
2018-09-06T07:06:40.794Z,9.60
2018-09-06T07:09:09.996Z,11.17
2018-09-06T07:11:38.296Z,10.23
2018-09-06T07:14:06.742Z,9.63
2018-09-06T07:16:35.009Z,11.10
2018-09-06T07:19:03.259Z,10.53
2018-09-06T07:21:31.670Z,13.07
2018-09-06T07:24:00.006Z,13.67
2018-09-06T07:26:28.383Z,11.93
2018-09-06T07:28:57.146Z,13.20
2018-09-06T07:31:25.604Z,11.70
2018-09-06T07:33:53.861Z,14.37
2018-09-06T07:36:22.426Z,13.17
2018-09-06T07:38:50.717Z,12.60
2018-09-06T07:41:19.113Z,12.50
2018-09-06T07:43:47.419Z,12.53
2018-09-06T07:46:15.738Z,12.13
2018-09-06T07:48:44.072Z,15.33
2018-09-06T07:51:12.416Z,13.20
2018-09-06T07:53:40.609Z,12.97
2018-09-06T07:56:09.069Z,14.10
2018-09-06T07:58:37.388Z,20.80
2018-09-06T08:01:05.949Z,17.37
2018-09-06T08:03:34.311Z,15.67
2018-09-06T08:06:02.625Z,15.90
2018-09-06T08:08:31.073Z,14.10
2018-09-06T08:10:59.875Z,17.03
2018-09-06T08:13:28.311Z,15.67
2018-09-06T08:15:56.655Z,15.33
2018-09-06T08:18:24.997Z,15.83
2018-09-06T08:20:53.410Z,16.37
2018-09-06T08:23:21.797Z,15.07
2018-09-06T08:25:50.036Z,15.63
2018-09-06T08:28:18.357Z,17.27
2018-09-06T08:30:47.066Z,19.40
2018-09-06T08:33:15.402Z,16.80
2018-09-06T08:35:43.733Z,15.70
2018-09-06T08:38:12.135Z,16.27
2018-09-06T08:40:40.418Z,17.07
2018-09-06T08:43:08.771Z,15.23
2018-09-06T08:45:37.302Z,14.97
2018-09-06T08:48:05.757Z,15.90
2018-09-06T08:50:33.978Z,15.17
2018-09-06T08:53:02.397Z,14.73
2018-09-06T08:55:30.678Z,16.80
2018-09-06T08:57:58.929Z,15.47
2018-09-06T09:00:27.190Z,15.03
2018-09-06T09:02:55.707Z,18.43
2018-09-06T09:05:23.958Z,19.00
2018-09-06T09:07:52.417Z,18.87
2018-09-06T09:10:20.829Z,16.87
2018-09-06T09:12:49.118Z,17.10
2018-09-06T09:15:17.351Z,17.27
2018-09-06T09:17:45.805Z,17.70
2018-09-06T09:20:14.236Z,19.37
2018-09-06T09:22:42.508Z,20.17
2018-09-06T09:25:10.839Z,21.57
2018-09-06T09:27:39.480Z,19.37
2018-09-06T09:30:09.040Z,17.77
2018-09-06T09:32:37.479Z,17.37
2018-09-06T09:35:05.796Z,18.87
2018-09-06T09:37:34.267Z,15.07
2018-09-06T09:40:02.881Z,15.70
2018-09-06T09:42:31.399Z,15.57
2018-09-06T09:44:59.772Z,17.40
2018-09-06T09:49:55.711Z,18.60
2018-09-06T09:52:23.983Z,16.70
2018-09-06T09:54:52.291Z,18.10
2018-09-06T09:57:20.592Z,16.83
2018-09-06T09:59:48.949Z,19.50
2018-09-06T10:02:22.677Z,20.57
2018-09-06T10:04:55.079Z,17.83
2018-09-06T10:07:28.818Z,17.77
2018-09-06T10:09:57.178Z,18.37
2018-09-06T10:12:25.647Z,20.90
2018-09-06T10:14:54.049Z,19.77
2018-09-06T10:17:22.333Z,19.60
2018-09-06T10:19:50.760Z,23.87
2018-09-06T10:22:19.100Z,19.13
2018-09-06T10:24:47.431Z,17.90
2018-09-06T10:27:16.450Z,17.60
2018-09-06T10:29:44.934Z,19.63
2018-09-06T10:32:13.215Z,20.20
2018-09-06T10:34:41.636Z,22.80
2018-09-06T10:37:10.009Z,18.93
2018-09-06T10:39:38.389Z,17.23
2018-09-06T10:42:06.826Z,15.37
2018-09-06T10:44:35.156Z,16.03
2018-09-06T10:47:03.541Z,17.50
2018-09-06T10:49:32.122Z,16.87
2018-09-06T10:52:00.483Z,15.33
2018-09-06T10:54:28.843Z,13.90
2018-09-06T10:56:57.147Z,14.93
2018-09-06T10:59:25.569Z,12.93
2018-09-06T11:01:53.680Z,13.47
2018-09-06T11:04:22.092Z,14.93
2018-09-06T11:06:50.412Z,16.30
2018-09-06T11:09:20.050Z,14.53
2018-09-06T11:11:48.229Z,14.83
2018-09-06T11:14:16.402Z,16.80
2018-09-06T11:16:44.749Z,17.80
2018-09-06T11:19:13.222Z,18.27
2018-09-06T11:21:41.673Z,17.73
2018-09-06T11:24:09.767Z,22.80
2018-09-06T11:26:38.058Z,17.77
2018-09-06T11:29:06.170Z,18.60
2018-09-06T11:31:34.452Z,20.77
2018-09-06T11:34:02.769Z,17.63
2018-09-06T11:36:33.884Z,24.63
2018-09-06T11:39:02.094Z,21.10
2018-09-06T11:41:30.398Z,25.47
2018-09-06T11:43:58.640Z,22.83
2018-09-06T11:46:26.954Z,22.83
2018-09-06T11:48:55.171Z,25.70
2018-09-06T11:51:23.762Z,28.63
2018-09-06T11:53:52.034Z,20.83
2018-09-06T11:56:20.283Z,23.30
2018-09-06T11:58:48.609Z,24.33
2018-09-06T12:01:16.941Z,21.17
2018-09-06T12:03:45.241Z,22.33
2018-09-06T12:06:13.410Z,18.47
2018-09-06T12:08:41.657Z,20.70
2018-09-06T12:11:09.896Z,20.83
2018-09-06T12:13:38.147Z,20.40
2018-09-06T12:16:07.674Z,19.40
2018-09-06T12:18:35.866Z,22.10
2018-09-06T12:21:04.167Z,20.93
2018-09-06T12:23:32.466Z,19.40
2018-09-06T12:26:00.691Z,19.73
2018-09-06T12:28:28.890Z,19.57
2018-09-06T12:30:57.344Z,21.63
2018-09-06T12:33:26.084Z,20.17
2018-09-06T12:35:54.476Z,19.03
2018-09-06T12:38:22.676Z,22.20
2018-09-06T12:54:24.351Z,19.90
2018-09-06T12:56:53.265Z,22.27
2018-09-06T12:59:21.931Z,23.93
2018-09-06T13:01:50.354Z,22.60
2018-09-06T13:04:18.773Z,20.77
2018-09-06T13:06:47.140Z,21.73
2018-09-06T13:09:15.512Z,22.17
2018-09-06T13:11:43.965Z,23.03
2018-09-06T13:14:12.805Z,21.90
2018-09-06T13:16:41.340Z,24.27
2018-09-06T13:19:09.720Z,20.50
2018-09-06T13:21:38.163Z,21.60
2018-09-06T13:24:06.595Z,25.27
2018-09-06T13:26:35.378Z,22.00
2018-09-06T13:29:03.753Z,25.60
2018-09-06T13:31:32.155Z,26.03
2018-09-06T13:34:00.535Z,25.80
2018-09-06T13:36:29.815Z,26.93
2018-09-06T13:38:57.995Z,29.13
2018-09-06T13:41:26.215Z,29.87
2018-09-06T13:43:54.635Z,28.47
2018-09-06T13:46:22.935Z,32.83
2018-09-06T13:48:51.075Z,33.00
2018-09-06T13:51:19.392Z,31.43
2018-09-06T13:53:47.604Z,29.37
2018-09-06T13:56:15.914Z,28.97
2018-09-06T13:58:44.223Z,29.07
2018-09-06T14:01:12.430Z,31.70
2018-09-06T14:03:41.033Z,33.23
2018-09-06T14:06:09.452Z,19.10
2018-09-06T14:08:38.152Z,15.43
2018-09-06T14:11:06.733Z,15.47
2018-09-06T14:13:35.396Z,14.37
2018-09-06T14:16:03.632Z,14.40
2018-09-06T14:18:32.816Z,12.67
2018-09-06T14:21:01.196Z,13.00
2018-09-06T14:23:29.485Z,13.37
2018-09-06T14:25:57.724Z,12.70
2018-09-06T14:28:25.950Z,11.90
2018-09-06T14:30:54.159Z,12.40
2018-09-06T14:33:22.374Z,11.80
2018-09-06T14:35:50.592Z,11.23
2018-09-06T14:38:18.878Z,12.50
2018-09-06T14:40:46.973Z,10.50
2018-09-06T14:43:15.312Z,11.77
2018-09-06T14:45:43.510Z,12.33
2018-09-06T14:48:11.770Z,10.57
2018-09-06T14:50:39.960Z,11.23
2018-09-06T14:53:08.474Z,11.33
2018-09-06T14:55:36.750Z,11.43
2018-09-06T14:58:05.090Z,11.87
2018-09-06T15:00:34.381Z,11.20
2018-09-06T15:03:02.712Z,11.17
2018-09-06T15:05:30.912Z,12.40
2018-09-06T15:07:59.267Z,11.27
2018-09-06T15:10:27.496Z,12.03
2018-09-06T15:12:55.707Z,12.00
2018-09-06T15:15:23.934Z,12.93
2018-09-06T15:17:52.275Z,11.20
2018-09-06T15:20:21.056Z,10.80
2018-09-06T15:22:49.267Z,10.97
2018-09-06T15:25:17.475Z,11.80
2018-09-06T15:27:45.809Z,9.83
2018-09-06T15:30:14.156Z,11.13
2018-09-06T15:32:42.356Z,10.57
2018-09-06T15:35:10.654Z,10.30
2018-09-06T15:37:38.975Z,11.77
2018-09-06T15:40:07.396Z,13.30
2018-09-06T15:42:39.635Z,12.63
2018-09-06T15:45:07.875Z,10.77
2018-09-06T15:47:37.015Z,10.93
2018-09-06T15:50:05.225Z,12.20
2018-09-06T15:52:33.544Z,11.60
2018-09-06T15:55:01.707Z,11.63
2018-09-06T15:57:29.836Z,11.37
2018-09-06T15:59:58.085Z,10.00
2018-09-06T16:02:26.384Z,9.87
2018-09-06T16:04:54.784Z,9.50
2018-09-06T16:07:23.436Z,9.77
2018-09-06T16:09:51.696Z,12.43
2018-09-06T16:12:19.902Z,11.60
2018-09-06T16:14:48.084Z,9.83
2018-09-06T16:17:16.357Z,9.77
2018-09-06T16:19:44.564Z,10.07
2018-09-06T16:22:12.708Z,10.97
2018-09-06T16:24:41.065Z,9.20
2018-09-06T16:27:09.256Z,9.57
2018-09-06T16:29:37.797Z,9.40
2018-09-06T16:32:06.185Z,11.47
2018-09-06T16:34:34.477Z,9.37
2018-09-06T16:37:02.698Z,9.43
2018-09-06T16:39:31.081Z,10.47
2018-09-06T16:41:59.284Z,10.77
2018-09-06T16:44:27.536Z,9.10
2018-09-06T16:47:02.284Z,9.50
2018-09-06T16:49:30.608Z,8.43
2018-09-06T16:51:59.172Z,8.73
2018-09-06T16:54:28.344Z,9.27
2018-09-06T16:56:59.444Z,8.20
2018-09-06T16:59:30.145Z,8.57
2018-09-06T17:01:58.757Z,10.43
2018-09-06T17:04:28.344Z,8.60
2018-09-06T17:06:58.155Z,7.90
2018-09-06T17:09:30.784Z,8.67
2018-09-06T17:12:00.304Z,10.13
2018-09-06T17:14:29.173Z,12.07
2018-09-06T17:16:57.664Z,8.40
2018-09-06T17:19:26.284Z,8.13
2018-09-06T17:21:54.846Z,8.00
2018-09-06T17:24:23.730Z,8.20
2018-09-06T17:26:52.509Z,8.50
2018-09-06T17:29:22.959Z,8.30
2018-09-06T17:31:55.041Z,8.67
2018-09-06T17:34:26.324Z,8.43
2018-09-06T17:36:55.831Z,8.03
2018-09-06T17:39:26.110Z,8.60
2018-09-06T17:41:54.816Z,8.60
2018-09-06T17:44:23.292Z,9.60
2018-09-06T17:46:56.645Z,8.50
2018-09-06T17:49:25.271Z,8.60
2018-09-06T17:51:53.879Z,8.67
2018-09-06T17:54:23.292Z,9.80
2018-09-06T17:56:51.723Z,9.33
2018-09-06T17:59:20.190Z,9.97
2018-09-06T18:01:48.730Z,9.17
2018-09-06T18:04:17.108Z,9.37
2018-09-06T18:06:45.634Z,9.20
2018-09-06T18:09:14.622Z,8.27
2018-09-06T18:11:45.830Z,8.33
2018-09-06T18:14:14.290Z,8.60
2018-09-06T18:16:42.902Z,9.17
2018-09-06T18:19:11.113Z,9.70
2018-09-06T18:21:40.244Z,9.87
2018-09-06T18:24:08.695Z,8.13
2018-09-06T18:26:37.262Z,8.53
2018-09-06T18:29:05.743Z,9.07
2018-09-06T18:31:34.652Z,9.07
2018-09-06T18:34:03.017Z,9.83
2018-09-06T18:36:31.632Z,10.20
2018-09-06T18:39:00.055Z,9.43
2018-09-06T18:41:30.591Z,14.43
2018-09-06T18:44:03.411Z,12.27
2018-09-06T18:46:32.153Z,13.93
2018-09-06T18:49:00.473Z,11.47
2018-09-06T18:51:29.411Z,11.73
2018-09-06T18:53:57.852Z,11.43
2018-09-06T18:56:27.252Z,12.73
2018-09-06T18:58:55.610Z,11.43
2018-09-06T19:01:24.150Z,13.67
2018-09-06T19:03:52.751Z,24.43
2018-09-06T19:06:21.532Z,22.97
2018-09-06T19:08:50.992Z,22.00
2018-09-06T19:11:20.550Z,21.80
2018-09-06T19:13:51.190Z,20.27
2018-09-06T19:16:19.476Z,19.47
2018-09-06T19:18:47.886Z,21.13
2018-09-06T19:21:16.832Z,24.60
2018-09-06T19:23:45.392Z,22.60
2018-09-06T19:26:14.132Z,28.47
2018-09-06T19:28:42.870Z,31.00
2018-09-06T19:31:11.253Z,27.90
2018-09-06T19:33:39.872Z,32.67
2018-09-06T19:36:08.712Z,33.87
2018-09-06T19:38:37.214Z,33.17
2018-09-06T19:41:05.991Z,38.33
2018-09-06T19:43:35.292Z,41.10
2018-09-06T19:46:11.115Z,38.10
2018-09-06T19:48:39.604Z,43.57
2018-09-06T19:51:07.864Z,47.67
2018-09-06T19:53:36.390Z,46.50
2018-09-06T19:56:06.264Z,50.00
2018-09-06T19:58:37.535Z,49.80
2018-09-06T20:01:06.269Z,56.83
2018-09-06T20:03:34.863Z,49.37
2018-09-06T20:06:03.495Z,52.37
2018-09-06T20:08:32.061Z,50.20
2018-09-06T20:11:01.210Z,51.77
2018-09-06T20:13:33.951Z,59.40
2018-09-06T20:16:03.316Z,54.80
2018-09-06T20:18:37.995Z,62.63
2018-09-06T20:21:06.584Z,57.83
2018-09-06T20:23:35.172Z,55.90
2018-09-06T20:26:03.626Z,63.43
2018-09-06T20:28:31.924Z,66.43
2018-09-06T20:31:06.512Z,59.20
2018-09-06T20:33:35.162Z,69.13
2018-09-06T20:36:07.435Z,66.73
2018-09-06T20:38:36.249Z,66.23
2018-09-06T20:41:04.596Z,71.77
2018-09-06T20:43:34.382Z,70.77
2018-09-06T20:46:03.129Z,72.33
2018-09-06T20:48:31.636Z,69.70
2018-09-06T20:51:01.919Z,75.00
2018-09-06T20:53:30.530Z,78.97
2018-09-06T20:56:09.737Z,78.50
2018-09-06T20:58:38.249Z,81.23
2018-09-06T21:01:06.655Z,82.77
2018-09-06T21:03:40.621Z,86.43
2018-09-06T21:06:08.913Z,82.43
2018-09-06T21:08:37.228Z,90.80
2018-09-06T21:11:05.498Z,85.77
2018-09-06T21:13:34.389Z,91.80
2018-09-06T21:16:02.770Z,90.77
2018-09-06T21:18:31.090Z,90.73
2018-09-06T21:20:59.290Z,92.73
2018-09-06T21:23:27.498Z,93.67
2018-09-06T21:25:56.590Z,97.07
2018-09-06T21:28:25.030Z,96.30
2018-09-06T21:30:53.394Z,101.00
2018-09-06T21:33:21.630Z,103.03
2018-09-06T21:35:50.733Z,100.80
2018-09-06T21:38:18.870Z,108.53
2018-09-06T21:40:47.250Z,111.20
2018-09-06T21:43:16.790Z,109.50
2018-09-06T21:45:44.970Z,109.90
2018-09-06T21:48:13.210Z,110.87
2018-09-06T21:50:41.430Z,113.17
2018-09-06T21:53:09.730Z,107.30
2018-09-06T21:55:38.090Z,105.93
2018-09-06T21:58:06.370Z,113.43
2018-09-06T22:00:34.892Z,104.33
2018-09-06T22:03:08.490Z,115.80
2018-09-06T22:05:37.330Z,114.53
2018-09-06T22:08:06.655Z,110.77
2018-09-06T22:10:35.194Z,114.83
2018-09-06T22:13:03.670Z,113.83
2018-09-06T22:15:32.339Z,118.77
2018-09-06T22:18:00.933Z,111.97
2018-09-06T22:20:29.451Z,111.00
2018-09-06T22:22:57.950Z,108.63
2018-09-06T22:25:26.060Z,106.57
2018-09-06T22:27:54.266Z,99.77
2018-09-06T22:30:22.554Z,97.20
2018-09-06T22:32:50.923Z,97.60
2018-09-06T22:35:19.189Z,97.53
2018-09-06T22:37:47.194Z,92.20
2018-09-06T22:40:15.454Z,96.37
2018-09-06T22:42:43.584Z,94.50
2018-09-06T22:45:11.875Z,82.67
2018-09-06T22:47:40.183Z,89.47
2018-09-06T22:50:08.899Z,85.07
2018-09-06T22:52:37.455Z,88.20
2018-09-06T22:55:05.715Z,88.90
2018-09-06T22:57:34.460Z,87.83
2018-09-06T23:00:04.474Z,86.33
2018-09-06T23:02:38.115Z,84.23
2018-09-06T23:05:06.367Z,89.80
2018-09-06T23:07:34.754Z,92.80
2018-09-06T23:10:04.457Z,78.47
2018-09-06T23:12:32.794Z,87.67
2018-09-06T23:15:00.915Z,87.90
2018-09-06T23:17:29.155Z,83.50
2018-09-06T23:19:57.515Z,87.57
2018-09-06T23:22:25.894Z,81.17
2018-09-06T23:24:54.459Z,73.53
2018-09-06T23:27:26.075Z,67.53
2018-09-06T23:29:57.069Z,60.60
2018-09-06T23:32:25.316Z,61.10
2018-09-06T23:34:53.331Z,52.43
2018-09-06T23:37:21.493Z,45.93
2018-09-06T23:39:49.722Z,42.90
2018-09-06T23:42:17.700Z,44.93
2018-09-06T23:44:45.985Z,43.07
2018-09-06T23:47:14.062Z,43.93
2018-09-06T23:49:42.111Z,46.73
2018-09-06T23:52:10.106Z,44.97
2018-09-06T23:54:38.230Z,48.43
2018-09-06T23:57:06.512Z,44.07
2018-09-06T23:59:34.851Z,45.47
